sensor_id;sensor_type;location;lat;lon;timestamp;pressure;altitude;pressure_sealevel;temperature;humidity
4576;BME280;2300;51.874;8.430;2023-04-06T00:02:08;101054.88;;;1.63;65.54
4576;BME280;2300;51.874;8.430;2023-04-06T00:04:37;101035.91;;;1.55;65.42
4576;BME280;2300;51.874;8.430;2023-04-06T00:07:04;101045.91;;;1.54;65.41
4576;BME280;2300;51.874;8.430;2023-04-06T00:09:30;101052.16;;;1.63;65.31
4576;BME280;2300;51.874;8.430;2023-04-06T00:11:57;101051.00;;;1.65;65.26
4576;BME280;2300;51.874;8.430;2023-04-06T00:14:23;101036.22;;;1.43;65.86
4576;BME280;2300;51.874;8.430;2023-04-06T00:16:52;101044.16;;;1.37;66.91
4576;BME280;2300;51.874;8.430;2023-04-06T00:19:27;101018.75;;;1.30;67.06
4576;BME280;2300;51.874;8.430;2023-04-06T00:21:56;101005.84;;;1.16;66.80
4576;BME280;2300;51.874;8.430;2023-04-06T00:24:23;101043.16;;;1.38;66.37
4576;BME280;2300;51.874;8.430;2023-04-06T00:26:50;101041.78;;;1.34;66.51
4576;BME280;2300;51.874;8.430;2023-04-06T00:29:18;101023.44;;;1.20;66.97
4576;BME280;2300;51.874;8.430;2023-04-06T00:31:45;101036.38;;;1.34;66.86
4576;BME280;2300;51.874;8.430;2023-04-06T00:34:12;100991.31;;;1.17;66.45
4576;BME280;2300;51.874;8.430;2023-04-06T00:36:40;101034.72;;;1.49;66.66
4576;BME280;2300;51.874;8.430;2023-04-06T00:39:07;101026.59;;;1.49;66.01
4576;BME280;2300;51.874;8.430;2023-04-06T00:41:34;101021.84;;;1.35;65.98
4576;BME280;2300;51.874;8.430;2023-04-06T00:44:00;101008.97;;;1.37;66.21
4576;BME280;2300;51.874;8.430;2023-04-06T00:46:28;101016.59;;;1.41;66.47
4576;BME280;2300;51.874;8.430;2023-04-06T00:48:54;101000.84;;;1.29;66.29
4576;BME280;2300;51.874;8.430;2023-04-06T00:51:21;100997.09;;;1.30;66.70
4576;BME280;2300;51.874;8.430;2023-04-06T00:53:48;101007.63;;;1.41;66.33
4576;BME280;2300;51.874;8.430;2023-04-06T00:56:16;101017.13;;;1.45;66.40
4576;BME280;2300;51.874;8.430;2023-04-06T00:58:42;101011.72;;;1.45;66.45
4576;BME280;2300;51.874;8.430;2023-04-06T01:01:09;101007.63;;;1.41;66.41
4576;BME280;2300;51.874;8.430;2023-04-06T01:03:35;101000.66;;;1.30;67.04
4576;BME280;2300;51.874;8.430;2023-04-06T01:06:02;101001.81;;;1.20;67.53
4576;BME280;2300;51.874;8.430;2023-04-06T01:08:29;100998.75;;;1.15;67.85
4576;BME280;2300;51.874;8.430;2023-04-06T01:10:55;100980.25;;;0.94;67.92
4576;BME280;2300;51.874;8.430;2023-04-06T01:13:23;100998.00;;;0.96;68.85
4576;BME280;2300;51.874;8.430;2023-04-06T01:15:49;100998.34;;;0.93;69.24
4576;BME280;2300;51.874;8.430;2023-04-06T01:18:16;100980.22;;;0.86;69.41
4576;BME280;2300;51.874;8.430;2023-04-06T01:20:43;100989.25;;;1.02;68.44
4576;BME280;2300;51.874;8.430;2023-04-06T01:23:10;100987.88;;;0.98;69.29
4576;BME280;2300;51.874;8.430;2023-04-06T01:25:37;100987.84;;;0.90;69.87
4576;BME280;2300;51.874;8.430;2023-04-06T01:28:03;100985.47;;;0.87;69.56
4576;BME280;2300;51.874;8.430;2023-04-06T01:30:30;100975.31;;;0.81;69.22
4576;BME280;2300;51.874;8.430;2023-04-06T01:32:56;100992.25;;;0.91;69.26
4576;BME280;2300;51.874;8.430;2023-04-06T01:35:23;100983.13;;;0.92;68.76
4576;BME280;2300;51.874;8.430;2023-04-06T01:37:49;100961.44;;;0.76;69.65
4576;BME280;2300;51.874;8.430;2023-04-06T01:40:17;100974.81;;;0.86;69.59
4576;BME280;2300;51.874;8.430;2023-04-06T01:42:44;100971.25;;;0.77;69.72
4576;BME280;2300;51.874;8.430;2023-04-06T01:45:11;100965.47;;;0.72;69.59
4576;BME280;2300;51.874;8.430;2023-04-06T01:47:37;100968.84;;;0.74;70.07
4576;BME280;2300;51.874;8.430;2023-04-06T01:50:04;100971.19;;;0.69;70.27
4576;BME280;2300;51.874;8.430;2023-04-06T01:52:32;100960.38;;;0.69;69.88
4576;BME280;2300;51.874;8.430;2023-04-06T01:54:59;100951.03;;;0.63;70.02
4576;BME280;2300;51.874;8.430;2023-04-06T01:57:26;100969.47;;;0.68;70.42
4576;BME280;2300;51.874;8.430;2023-04-06T01:59:53;100960.16;;;0.62;70.54
4576;BME280;2300;51.874;8.430;2023-04-06T02:02:20;100966.63;;;0.70;70.15
4576;BME280;2300;51.874;8.430;2023-04-06T02:04:46;100971.19;;;0.69;69.72
4576;BME280;2300;51.874;8.430;2023-04-06T02:07:12;100960.91;;;0.73;69.59
4576;BME280;2300;51.874;8.430;2023-04-06T02:09:39;100958.03;;;0.74;69.59
4576;BME280;2300;51.874;8.430;2023-04-06T02:12:06;100963.28;;;0.76;69.58
4576;BME280;2300;51.874;8.430;2023-04-06T02:14:33;100937.03;;;0.68;69.50
4576;BME280;2300;51.874;8.430;2023-04-06T02:17:00;100928.25;;;0.66;69.38
4576;BME280;2300;51.874;8.430;2023-04-06T02:19:26;100964.16;;;0.84;69.69
4576;BME280;2300;51.874;8.430;2023-04-06T02:21:53;100957.38;;;0.80;69.46
4576;BME280;2300;51.874;8.430;2023-04-06T02:24:19;100952.97;;;0.71;70.20
4576;BME280;2300;51.874;8.430;2023-04-06T02:26:46;100955.16;;;0.68;70.11
4576;BME280;2300;51.874;8.430;2023-04-06T02:29:12;100959.00;;;0.65;70.22
4576;BME280;2300;51.874;8.430;2023-04-06T02:31:40;100948.88;;;0.67;70.02
4576;BME280;2300;51.874;8.430;2023-04-06T02:34:06;100896.88;;;0.31;69.71
4576;BME280;2300;51.874;8.430;2023-04-06T02:36:36;100978.50;;;0.77;69.58
4576;BME280;2300;51.874;8.430;2023-04-06T02:39:02;100955.69;;;0.79;69.48
4576;BME280;2300;51.874;8.430;2023-04-06T02:41:29;100892.97;;;0.34;69.69
4576;BME280;2300;51.874;8.430;2023-04-06T02:43:55;100956.53;;;0.80;69.53
4576;BME280;2300;51.874;8.430;2023-04-06T02:46:22;100955.16;;;0.76;69.51
4576;BME280;2300;51.874;8.430;2023-04-06T02:48:50;100950.09;;;0.73;69.48
4576;BME280;2300;51.874;8.430;2023-04-06T02:51:16;100926.19;;;0.52;70.16
4576;BME280;2300;51.874;8.430;2023-04-06T02:53:42;100937.34;;;0.57;70.19
4576;BME280;2300;51.874;8.430;2023-04-06T02:56:09;100931.22;;;0.47;70.54
4576;BME280;2300;51.874;8.430;2023-04-06T02:58:36;100951.03;;;0.55;71.25
4576;BME280;2300;51.874;8.430;2023-04-06T03:01:03;100944.19;;;0.43;71.44
4576;BME280;2300;51.874;8.430;2023-04-06T03:03:29;100957.84;;;0.42;71.28
4576;BME280;2300;51.874;8.430;2023-04-06T03:05:57;100948.34;;;0.30;71.57
4576;BME280;2300;51.874;8.430;2023-04-06T03:08:25;100950.78;;;0.41;71.38
4576;BME280;2300;51.874;8.430;2023-04-06T03:10:51;100953.63;;;0.39;71.01
4576;BME280;2300;51.874;8.430;2023-04-06T03:13:18;100952.63;;;0.40;71.03
4576;BME280;2300;51.874;8.430;2023-04-06T03:15:44;100915.50;;;0.16;70.95
4576;BME280;2300;51.874;8.430;2023-04-06T03:18:11;100948.72;;;0.35;71.64
4576;BME280;2300;51.874;8.430;2023-04-06T03:20:37;100949.56;;;0.35;71.22
4576;BME280;2300;51.874;8.430;2023-04-06T03:23:05;100942.63;;;0.33;71.46
4576;BME280;2300;51.874;8.430;2023-04-06T03:25:32;100940.91;;;0.32;71.23
4576;BME280;2300;51.874;8.430;2023-04-06T03:27:58;100937.84;;;0.27;71.58
4576;BME280;2300;51.874;8.430;2023-04-06T03:30:25;100949.50;;;0.27;71.58
4576;BME280;2300;51.874;8.430;2023-04-06T03:32:51;100901.22;;;-0.02;71.42
4576;BME280;2300;51.874;8.430;2023-04-06T03:35:18;100946.13;;;0.25;71.46
4576;BME280;2300;51.874;8.430;2023-04-06T03:37:51;100928.84;;;0.18;71.43
4576;BME280;2300;51.874;8.430;2023-04-06T03:40:19;100943.25;;;0.27;71.55
4576;BME280;2300;51.874;8.430;2023-04-06T03:42:46;100943.25;;;0.27;71.44
4576;BME280;2300;51.874;8.430;2023-04-06T03:45:12;100964.84;;;0.27;71.71
4576;BME280;2300;51.874;8.430;2023-04-06T03:47:39;100875.91;;;-0.27;71.59
4576;BME280;2300;51.874;8.430;2023-04-06T03:50:06;100949.38;;;0.37;71.26
4576;BME280;2300;51.874;8.430;2023-04-06T03:52:34;100943.88;;;0.46;71.04
4576;BME280;2300;51.874;8.430;2023-04-06T03:55:00;100941.38;;;0.53;70.80
4576;BME280;2300;51.874;8.430;2023-04-06T03:57:28;100954.56;;;0.56;70.57
4576;BME280;2300;51.874;8.430;2023-04-06T03:59:55;100957.59;;;0.53;70.68
4576;BME280;2300;51.874;8.430;2023-04-06T04:02:22;100957.56;;;0.45;71.09
4576;BME280;2300;51.874;8.430;2023-04-06T04:04:49;100947.53;;;0.37;71.11
4576;BME280;2300;51.874;8.430;2023-04-06T04:07:15;100948.00;;;0.33;71.26
4576;BME280;2300;51.874;8.430;2023-04-06T04:09:42;100944.94;;;0.28;71.33
4576;BME280;2300;51.874;8.430;2023-04-06T04:12:08;100951.53;;;0.25;71.52
4576;BME280;2300;51.874;8.430;2023-04-06T04:14:36;100949.31;;;0.20;71.70
4576;BME280;2300;51.874;8.430;2023-04-06T04:17:03;100810.53;;;-0.64;71.45
4576;BME280;2300;51.874;8.430;2023-04-06T04:19:30;100928.06;;;-0.00;72.22
4576;BME280;2300;51.874;8.430;2023-04-06T04:21:58;100955.34;;;0.14;72.07
4576;BME280;2300;51.874;8.430;2023-04-06T04:24:24;100912.28;;;-0.13;71.67
4576;BME280;2300;51.874;8.430;2023-04-06T04:26:52;100948.56;;;0.10;72.01
4576;BME280;2300;51.874;8.430;2023-04-06T04:29:19;100949.72;;;0.08;71.88
4576;BME280;2300;51.874;8.430;2023-04-06T04:31:52;100953.97;;;0.10;72.21
4576;BME280;2300;51.874;8.430;2023-04-06T04:34:18;100952.19;;;0.01;72.77
4576;BME280;2300;51.874;8.430;2023-04-06T04:36:48;100952.69;;;-0.03;72.76
4576;BME280;2300;51.874;8.430;2023-04-06T04:39:15;100946.13;;;-0.01;72.75
4576;BME280;2300;51.874;8.430;2023-04-06T04:41:41;100915.09;;;-0.23;72.94
4576;BME280;2300;51.874;8.430;2023-04-06T04:44:08;100938.28;;;-0.12;72.87
4576;BME280;2300;51.874;8.430;2023-04-06T04:46:34;100942.41;;;0.00;72.34
4576;BME280;2300;51.874;8.430;2023-04-06T04:49:02;100927.69;;;-0.05;72.83
4576;BME280;2300;51.874;8.430;2023-04-06T04:51:29;100955.75;;;0.02;72.59
4576;BME280;2300;51.874;8.430;2023-04-06T04:53:56;100942.88;;;-0.04;73.14
4576;BME280;2300;51.874;8.430;2023-04-06T04:56:22;100955.22;;;-0.02;72.73
4576;BME280;2300;51.874;8.430;2023-04-06T04:58:49;100937.81;;;-0.07;73.02
4576;BME280;2300;51.874;8.430;2023-04-06T05:01:16;100929.69;;;-0.07;73.07
4576;BME280;2300;51.874;8.430;2023-04-06T05:03:42;100940.91;;;0.06;73.04
4576;BME280;2300;51.874;8.430;2023-04-06T05:06:10;100947.16;;;0.06;72.98
4576;BME280;2300;51.874;8.430;2023-04-06T05:08:37;100944.84;;;0.11;72.46
4576;BME280;2300;51.874;8.430;2023-04-06T05:11:03;100950.94;;;0.13;71.84
4576;BME280;2300;51.874;8.430;2023-04-06T05:13:30;100955.72;;;0.19;72.14
4576;BME280;2300;51.874;8.430;2023-04-06T05:15:57;100951.72;;;0.32;71.64
4576;BME280;2300;51.874;8.430;2023-04-06T05:18:23;100957.34;;;0.38;71.37
4576;BME280;2300;51.874;8.430;2023-04-06T05:20:50;100950.94;;;0.39;71.01
4576;BME280;2300;51.874;8.430;2023-04-06T05:23:18;100957.56;;;0.45;71.64
4576;BME280;2300;51.874;8.430;2023-04-06T05:25:44;100959.97;;;0.56;70.98
4576;BME280;2300;51.874;8.430;2023-04-06T05:28:11;100952.03;;;0.54;70.64
4576;BME280;2300;51.874;8.430;2023-04-06T05:30:39;100957.94;;;0.58;70.63
4576;BME280;2300;51.874;8.430;2023-04-06T05:33:06;100956.00;;;0.76;70.75
4576;BME280;2300;51.874;8.430;2023-04-06T05:35:32;100958.16;;;1.06;70.56
4576;BME280;2300;51.874;8.430;2023-04-06T05:37:59;100957.53;;;1.37;69.78
4576;BME280;2300;51.874;8.430;2023-04-06T05:40:26;100955.53;;;1.63;68.97
4576;BME280;2300;51.874;8.430;2023-04-06T05:42:53;100949.81;;;1.90;68.10
4576;BME280;2300;51.874;8.430;2023-04-06T05:45:20;100958.56;;;2.09;67.08
4576;BME280;2300;51.874;8.430;2023-04-06T05:47:47;100958.06;;;2.13;66.65
4576;BME280;2300;51.874;8.430;2023-04-06T05:50:14;100961.09;;;2.18;65.98
4576;BME280;2300;51.874;8.430;2023-04-06T05:52:40;100962.97;;;2.26;66.18
4576;BME280;2300;51.874;8.430;2023-04-06T05:55:09;100963.13;;;2.32;66.04
4576;BME280;2300;51.874;8.430;2023-04-06T05:57:37;100965.16;;;2.39;66.00
4576;BME280;2300;51.874;8.430;2023-04-06T06:00:05;100969.22;;;2.43;65.11
4576;BME280;2300;51.874;8.430;2023-04-06T06:02:34;100972.75;;;2.51;65.54
4576;BME280;2300;51.874;8.430;2023-04-06T06:05:00;100966.94;;;2.54;65.10
4576;BME280;2300;51.874;8.430;2023-04-06T06:07:27;100965.63;;;2.50;65.97
4576;BME280;2300;51.874;8.430;2023-04-06T06:09:56;100958.84;;;2.46;65.41
4576;BME280;2300;51.874;8.430;2023-04-06T06:12:22;100958.84;;;2.46;66.04
4576;BME280;2300;51.874;8.430;2023-04-06T06:14:50;100959.53;;;2.48;66.61
4576;BME280;2300;51.874;8.430;2023-04-06T06:17:17;100926.00;;;2.41;66.02
4576;BME280;2300;51.874;8.430;2023-04-06T06:19:43;100948.97;;;2.61;65.87
4576;BME280;2300;51.874;8.430;2023-04-06T06:22:09;100954.88;;;2.73;65.24
4576;BME280;2300;51.874;8.430;2023-04-06T06:24:36;100940.78;;;2.77;65.09
4576;BME280;2300;51.874;8.430;2023-04-06T06:27:02;100951.91;;;2.91;65.46
4576;BME280;2300;51.874;8.430;2023-04-06T06:29:29;100954.22;;;3.02;64.68
4576;BME280;2300;51.874;8.430;2023-04-06T06:31:57;100958.41;;;3.12;65.30
4576;BME280;2300;51.874;8.430;2023-04-06T06:34:23;100947.69;;;3.19;65.12
4576;BME280;2300;51.874;8.430;2023-04-06T06:36:50;100961.41;;;3.26;64.50
4576;BME280;2300;51.874;8.430;2023-04-06T06:39:20;100954.53;;;3.38;63.76
4576;BME280;2300;51.874;8.430;2023-04-06T06:41:46;100961.78;;;3.45;63.83
4576;BME280;2300;51.874;8.430;2023-04-06T06:44:13;100921.19;;;3.29;63.38
4576;BME280;2300;51.874;8.430;2023-04-06T06:46:40;100954.81;;;3.51;64.91
4576;BME280;2300;51.874;8.430;2023-04-06T06:49:08;100928.00;;;3.48;65.17
4576;BME280;2300;51.874;8.430;2023-04-06T06:51:36;100960.66;;;3.85;64.75
4576;BME280;2300;51.874;8.430;2023-04-06T06:54:03;100945.00;;;3.87;64.21
4576;BME280;2300;51.874;8.430;2023-04-06T06:56:29;100953.59;;;3.99;65.28
4576;BME280;2300;51.874;8.430;2023-04-06T06:58:56;100955.06;;;4.01;64.98
4576;BME280;2300;51.874;8.430;2023-04-06T07:01:22;100959.59;;;4.09;64.41
4576;BME280;2300;51.874;8.430;2023-04-06T07:03:49;100952.69;;;4.36;63.10
4576;BME280;2300;51.874;8.430;2023-04-06T07:06:16;100950.03;;;4.51;62.66
4576;BME280;2300;51.874;8.430;2023-04-06T07:08:43;100958.38;;;4.64;62.14
4576;BME280;2300;51.874;8.430;2023-04-06T07:11:12;100948.91;;;4.60;62.28
4576;BME280;2300;51.874;8.430;2023-04-06T07:13:39;100946.72;;;4.99;61.20
4576;BME280;2300;51.874;8.430;2023-04-06T07:16:05;100947.16;;;5.74;60.09
4576;BME280;2300;51.874;8.430;2023-04-06T07:18:32;100939.00;;;7.40;56.77
4576;BME280;2300;51.874;8.430;2023-04-06T07:20:58;100942.38;;;8.87;55.27
4576;BME280;2300;51.874;8.430;2023-04-06T07:23:26;100940.16;;;9.91;52.30
4576;BME280;2300;51.874;8.430;2023-04-06T07:25:53;100928.03;;;11.09;50.47
4576;BME280;2300;51.874;8.430;2023-04-06T07:28:20;100934.44;;;11.40;49.32
4576;BME280;2300;51.874;8.430;2023-04-06T07:30:47;100939.03;;;12.75;47.72
4576;BME280;2300;51.874;8.430;2023-04-06T07:33:13;100939.44;;;13.30;45.88
4576;BME280;2300;51.874;8.430;2023-04-06T07:35:40;100935.41;;;13.78;45.51
4576;BME280;2300;51.874;8.430;2023-04-06T07:38:06;100919.81;;;13.55;44.81
4576;BME280;2300;51.874;8.430;2023-04-06T07:40:34;100935.97;;;14.58;43.83
4576;BME280;2300;51.874;8.430;2023-04-06T07:43:01;100929.06;;;14.22;42.98
4576;BME280;2300;51.874;8.430;2023-04-06T07:45:28;100924.22;;;14.30;42.33
4576;BME280;2300;51.874;8.430;2023-04-06T07:47:54;100925.66;;;14.71;42.15
4576;BME280;2300;51.874;8.430;2023-04-06T07:50:21;100930.59;;;15.50;42.08
4576;BME280;2300;51.874;8.430;2023-04-06T07:52:48;100925.13;;;16.78;40.18
4576;BME280;2300;51.874;8.430;2023-04-06T07:55:14;100908.38;;;16.58;39.10
4576;BME280;2300;51.874;8.430;2023-04-06T07:57:42;100922.31;;;16.73;39.50
4576;BME280;2300;51.874;8.430;2023-04-06T08:00:10;100905.59;;;15.94;39.44
4576;BME280;2300;51.874;8.430;2023-04-06T08:02:37;100910.63;;;16.66;39.49
4576;BME280;2300;51.874;8.430;2023-04-06T08:05:03;100912.47;;;16.50;39.73
4576;BME280;2300;51.874;8.430;2023-04-06T08:07:31;100903.69;;;16.63;39.94
4576;BME280;2300;51.874;8.430;2023-04-06T08:09:57;100917.47;;;17.63;39.19
4576;BME280;2300;51.874;8.430;2023-04-06T08:12:23;100915.34;;;17.12;39.31
4576;BME280;2300;51.874;8.430;2023-04-06T08:14:53;100907.25;;;17.88;38.22
4576;BME280;2300;51.874;8.430;2023-04-06T08:17:20;100904.41;;;17.53;39.05
4576;BME280;2300;51.874;8.430;2023-04-06T08:19:46;100918.97;;;18.46;38.09
4576;BME280;2300;51.874;8.430;2023-04-06T08:22:13;100910.47;;;19.27;37.36
4576;BME280;2300;51.874;8.430;2023-04-06T08:24:40;100896.38;;;18.93;36.73
4576;BME280;2300;51.874;8.430;2023-04-06T08:27:06;100899.44;;;17.70;38.01
4576;BME280;2300;51.874;8.430;2023-04-06T08:29:33;100898.69;;;17.07;40.50
4576;BME280;2300;51.874;8.430;2023-04-06T08:32:02;100898.78;;;16.39;40.68
4576;BME280;2300;51.874;8.430;2023-04-06T08:34:31;100870.88;;;15.55;41.50
4576;BME280;2300;51.874;8.430;2023-04-06T08:36:57;100886.84;;;15.47;42.48
4576;BME280;2300;51.874;8.430;2023-04-06T08:39:23;100891.41;;;14.93;43.42
4576;BME280;2300;51.874;8.430;2023-04-06T08:41:50;100886.16;;;14.53;43.26
4576;BME280;2300;51.874;8.430;2023-04-06T08:44:18;100878.34;;;14.29;43.53
4576;BME280;2300;51.874;8.430;2023-04-06T08:46:44;100875.44;;;13.73;45.24
4576;BME280;2300;51.874;8.430;2023-04-06T08:49:14;100878.91;;;13.97;44.91
4576;BME280;2300;51.874;8.430;2023-04-06T08:51:42;100875.81;;;13.94;43.07
4576;BME280;2300;51.874;8.430;2023-04-06T08:54:08;100881.88;;;13.34;43.38
4576;BME280;2300;51.874;8.430;2023-04-06T08:56:38;100879.53;;;13.26;45.16
4576;BME280;2300;51.874;8.430;2023-04-06T08:59:06;100871.72;;;13.51;44.24
4576;BME280;2300;51.874;8.430;2023-04-06T09:01:34;100865.22;;;13.74;45.36
4576;BME280;2300;51.874;8.430;2023-04-06T09:04:07;100872.34;;;13.70;45.08
4576;BME280;2300;51.874;8.430;2023-04-06T09:06:37;100871.31;;;14.04;44.24
4576;BME280;2300;51.874;8.430;2023-04-06T09:09:05;100874.66;;;14.06;45.21
4576;BME280;2300;51.874;8.430;2023-04-06T09:11:44;100866.41;;;13.61;44.21
4576;BME280;2300;51.874;8.430;2023-04-06T09:14:11;100869.44;;;13.76;44.50
4576;BME280;2300;51.874;8.430;2023-04-06T09:16:39;100868.16;;;13.67;44.64
4576;BME280;2300;51.874;8.430;2023-04-06T09:19:06;100869.41;;;14.60;44.99
4576;BME280;2300;51.874;8.430;2023-04-06T09:21:33;100862.81;;;15.04;45.17
4576;BME280;2300;51.874;8.430;2023-04-06T09:24:03;100857.13;;;14.73;44.49
4576;BME280;2300;51.874;8.430;2023-04-06T09:26:30;100860.47;;;14.53;43.17
4576;BME280;2300;51.874;8.430;2023-04-06T09:28:58;100857.00;;;14.62;43.35
4576;BME280;2300;51.874;8.430;2023-04-06T09:31:27;100839.31;;;13.92;42.82
4576;BME280;2300;51.874;8.430;2023-04-06T09:33:54;100850.22;;;14.15;46.50
4576;BME280;2300;51.874;8.430;2023-04-06T09:36:29;100848.66;;;13.74;43.96
4576;BME280;2300;51.874;8.430;2023-04-06T09:38:57;100840.59;;;13.39;44.91
4576;BME280;2300;51.874;8.430;2023-04-06T09:41:27;100843.84;;;13.81;45.43
4576;BME280;2300;51.874;8.430;2023-04-06T09:44:02;100840.81;;;13.99;44.60
4576;BME280;2300;51.874;8.430;2023-04-06T09:46:31;100835.56;;;13.98;44.44
4576;BME280;2300;51.874;8.430;2023-04-06T09:48:58;100844.88;;;14.08;44.19
4576;BME280;2300;51.874;8.430;2023-04-06T09:51:26;100834.75;;;14.14;45.43
4576;BME280;2300;51.874;8.430;2023-04-06T09:53:56;100838.00;;;14.11;44.39
4576;BME280;2300;51.874;8.430;2023-04-06T09:56:28;100834.84;;;14.19;45.30
4576;BME280;2300;51.874;8.430;2023-04-06T09:59:02;100842.34;;;14.40;44.13
4576;BME280;2300;51.874;8.430;2023-04-06T10:01:32;100837.66;;;14.84;43.95
4576;BME280;2300;51.874;8.430;2023-04-06T10:04:07;100821.66;;;14.64;44.69
4576;BME280;2300;51.874;8.430;2023-04-06T10:06:37;100827.53;;;14.51;45.33
4576;BME280;2300;51.874;8.430;2023-04-06T10:09:06;100833.50;;;14.82;44.92
4576;BME280;2300;51.874;8.430;2023-04-06T10:11:35;100834.72;;;14.69;45.86
4576;BME280;2300;51.874;8.430;2023-04-06T10:14:02;100824.16;;;14.88;44.19
4576;BME280;2300;51.874;8.430;2023-04-06T10:16:29;100823.44;;;15.19;44.06
4576;BME280;2300;51.874;8.430;2023-04-06T10:19:04;100826.69;;;15.11;44.33
4576;BME280;2300;51.874;8.430;2023-04-06T10:21:32;100828.88;;;14.65;44.49
4576;BME280;2300;51.874;8.430;2023-04-06T10:24:01;100823.41;;;14.32;45.03
4576;BME280;2300;51.874;8.430;2023-04-06T10:26:28;100826.78;;;14.34;44.57
4576;BME280;2300;51.874;8.430;2023-04-06T10:29:02;100824.44;;;14.64;45.78
4576;BME280;2300;51.874;8.430;2023-04-06T10:31:29;100826.41;;;14.69;43.74
4576;BME280;2300;51.874;8.430;2023-04-06T10:33:56;100814.53;;;14.69;45.04
4576;BME280;2300;51.874;8.430;2023-04-06T10:36:25;100834.06;;;14.84;44.40
4576;BME280;2300;51.874;8.430;2023-04-06T10:38:56;100817.03;;;15.14;45.09
4576;BME280;2300;51.874;8.430;2023-04-06T10:41:23;100833.91;;;15.12;45.05
4576;BME280;2300;51.874;8.430;2023-04-06T10:43:56;100826.63;;;14.84;44.62
4576;BME280;2300;51.874;8.430;2023-04-06T10:46:27;100824.63;;;14.80;44.83
4576;BME280;2300;51.874;8.430;2023-04-06T10:48:54;100819.09;;;14.80;44.80
4576;BME280;2300;51.874;8.430;2023-04-06T10:51:24;100812.84;;;14.67;45.10
4576;BME280;2300;51.874;8.430;2023-04-06T10:53:53;100816.19;;;14.70;44.16
4576;BME280;2300;51.874;8.430;2023-04-06T10:56:23;100817.16;;;14.80;44.30
4576;BME280;2300;51.874;8.430;2023-04-06T10:58:52;100819.09;;;15.01;45.09
4576;BME280;2300;51.874;8.430;2023-04-06T11:01:24;100818.41;;;14.29;42.95
4576;BME280;2300;51.874;8.430;2023-04-06T11:03:53;100806.09;;;14.58;44.78
4576;BME280;2300;51.874;8.430;2023-04-06T11:06:21;100799.69;;;14.75;44.00
4576;BME280;2300;51.874;8.430;2023-04-06T11:08:48;100807.94;;;15.13;44.71
4576;BME280;2300;51.874;8.430;2023-04-06T11:11:16;100809.78;;;15.34;43.78
4576;BME280;2300;51.874;8.430;2023-04-06T11:13:45;100818.44;;;15.70;44.91
4576;BME280;2300;51.874;8.430;2023-04-06T11:16:14;100818.38;;;15.33;42.09
4576;BME280;2300;51.874;8.430;2023-04-06T11:18:52;100813.47;;;15.13;42.34
4576;BME280;2300;51.874;8.430;2023-04-06T11:21:20;100812.06;;;14.72;41.27
4576;BME280;2300;51.874;8.430;2023-04-06T11:23:46;100814.09;;;14.77;43.22
4576;BME280;2300;51.874;8.430;2023-04-06T11:26:13;100803.78;;;14.72;42.66
4576;BME280;2300;51.874;8.430;2023-04-06T11:28:41;100798.13;;;14.84;43.19
4576;BME280;2300;51.874;8.430;2023-04-06T11:31:08;100800.66;;;14.85;42.41
4576;BME280;2300;51.874;8.430;2023-04-06T11:33:36;100789.97;;;14.50;42.11
4576;BME280;2300;51.874;8.430;2023-04-06T11:36:05;100799.88;;;14.90;43.41
4576;BME280;2300;51.874;8.430;2023-04-06T11:38:32;100799.91;;;14.51;42.34
4576;BME280;2300;51.874;8.430;2023-04-06T11:40:58;100787.44;;;14.27;42.37
4576;BME280;2300;51.874;8.430;2023-04-06T11:43:28;100790.94;;;14.61;41.95
4576;BME280;2300;51.874;8.430;2023-04-06T11:46:02;100780.50;;;14.90;41.92
4576;BME280;2300;51.874;8.430;2023-04-06T11:48:29;100789.66;;;14.90;40.98
4576;BME280;2300;51.874;8.430;2023-04-06T11:50:56;100793.19;;;14.64;41.67
4576;BME280;2300;51.874;8.430;2023-04-06T11:53:27;100789.78;;;14.79;40.48
4576;BME280;2300;51.874;8.430;2023-04-06T11:55:54;100787.06;;;14.84;41.38
4576;BME280;2300;51.874;8.430;2023-04-06T11:58:20;100770.38;;;14.74;40.22
4576;BME280;2300;51.874;8.430;2023-04-06T12:00:47;100788.22;;;14.88;41.50
4576;BME280;2300;51.874;8.430;2023-04-06T12:03:14;100776.03;;;14.62;41.43
4576;BME280;2300;51.874;8.430;2023-04-06T12:05:40;100768.13;;;14.71;40.46
4576;BME280;2300;51.874;8.430;2023-04-06T12:08:07;100780.59;;;14.73;41.30
4576;BME280;2300;51.874;8.430;2023-04-06T12:10:35;100779.59;;;15.06;40.85
4576;BME280;2300;51.874;8.430;2023-04-06T12:13:01;100775.59;;;14.70;41.61
4576;BME280;2300;51.874;8.430;2023-04-06T12:15:28;100783.69;;;15.03;42.64
4576;BME280;2300;51.874;8.430;2023-04-06T12:17:54;100780.88;;;15.20;41.26
4576;BME280;2300;51.874;8.430;2023-04-06T12:20:20;100769.03;;;14.76;41.48
4576;BME280;2300;51.874;8.430;2023-04-06T12:22:47;100768.56;;;14.62;41.75
4576;BME280;2300;51.874;8.430;2023-04-06T12:25:13;100757.38;;;14.74;41.38
4576;BME280;2300;51.874;8.430;2023-04-06T12:27:41;100770.91;;;14.71;41.92
4576;BME280;2300;51.874;8.430;2023-04-06T12:30:08;100763.16;;;14.73;40.69
4576;BME280;2300;51.874;8.430;2023-04-06T12:32:35;100768.22;;;15.02;42.44
4576;BME280;2300;51.874;8.430;2023-04-06T12:35:02;100762.91;;;14.96;41.10
4576;BME280;2300;51.874;8.430;2023-04-06T12:37:28;100745.47;;;15.17;40.65
4576;BME280;2300;51.874;8.430;2023-04-06T12:39:55;100767.00;;;15.42;40.18
4576;BME280;2300;51.874;8.430;2023-04-06T12:42:21;100774.88;;;15.60;39.20
4576;BME280;2300;51.874;8.430;2023-04-06T12:44:49;100772.78;;;15.72;39.73
4576;BME280;2300;51.874;8.430;2023-04-06T12:47:15;100766.41;;;15.72;39.27
4576;BME280;2300;51.874;8.430;2023-04-06T12:49:43;100765.00;;;15.37;37.99
4576;BME280;2300;51.874;8.430;2023-04-06T12:52:10;100755.69;;;14.95;38.82
4576;BME280;2300;51.874;8.430;2023-04-06T12:54:36;100752.44;;;15.03;40.69
4576;BME280;2300;51.874;8.430;2023-04-06T12:57:03;100752.16;;;14.99;40.42
4576;BME280;2300;51.874;8.430;2023-04-06T12:59:29;100748.50;;;14.94;40.55
4576;BME280;2300;51.874;8.430;2023-04-06T13:02:01;100760.50;;;15.04;39.92
4576;BME280;2300;51.874;8.430;2023-04-06T13:04:27;100749.38;;;14.99;40.51
4576;BME280;2300;51.874;8.430;2023-04-06T13:06:54;100744.13;;;15.25;41.09
4576;BME280;2300;51.874;8.430;2023-04-06T13:09:20;100750.09;;;15.38;39.50
4576;BME280;2300;51.874;8.430;2023-04-06T13:11:47;100755.75;;;15.54;40.34
4576;BME280;2300;51.874;8.430;2023-04-06T13:14:13;100739.78;;;15.07;40.19
4576;BME280;2300;51.874;8.430;2023-04-06T13:16:40;100746.91;;;14.76;39.51
4576;BME280;2300;51.874;8.430;2023-04-06T13:19:08;100749.22;;;14.84;40.97